sensor_id;sensor_type;location;lat;lon;timestamp;P1;durP1;ratioP1;P2;durP2;ratioP2
72095;SDS011;59968;51.084;16.748;2023-04-24T00:01:22;21.40;;;13.00;;
72095;SDS011;59968;51.084;16.748;2023-04-24T00:03:51;21.90;;;12.90;;
72095;SDS011;59968;51.084;16.748;2023-04-24T00:06:20;21.50;;;13.30;;
72095;SDS011;59968;51.084;16.748;2023-04-24T00:08:51;22.20;;;13.40;;
72095;SDS011;59968;51.084;16.748;2023-04-24T00:11:20;21.50;;;12.50;;
72095;SDS011;59968;51.084;16.748;2023-04-24T00:13:49;18.00;;;11.70;;
72095;SDS011;59968;51.084;16.748;2023-04-24T00:16:17;19.50;;;12.00;;
72095;SDS011;59968;51.084;16.748;2023-04-24T00:18:46;19.40;;;12.40;;
72095;SDS011;59968;51.084;16.748;2023-04-24T00:21:16;19.90;;;12.50;;
72095;SDS011;59968;51.084;16.748;2023-04-24T00:23:45;20.20;;;11.80;;
72095;SDS011;59968;51.084;16.748;2023-04-24T00:26:14;18.00;;;11.40;;
72095;SDS011;59968;51.084;16.748;2023-04-24T00:28:43;17.20;;;11.40;;
72095;SDS011;59968;51.084;16.748;2023-04-24T00:31:11;19.00;;;11.40;;
72095;SDS011;59968;51.084;16.748;2023-04-24T00:33:40;17.80;;;11.10;;
72095;SDS011;59968;51.084;16.748;2023-04-24T00:36:09;17.60;;;10.70;;
72095;SDS011;59968;51.084;16.748;2023-04-24T00:38:38;17.80;;;11.00;;
72095;SDS011;59968;51.084;16.748;2023-04-24T00:41:06;19.70;;;11.20;;
72095;SDS011;59968;51.084;16.748;2023-04-24T00:43:35;17.90;;;11.80;;
72095;SDS011;59968;51.084;16.748;2023-04-24T00:46:13;18.00;;;10.80;;
72095;SDS011;59968;51.084;16.748;2023-04-24T00:48:43;19.40;;;11.10;;
72095;SDS011;59968;51.084;16.748;2023-04-24T00:51:11;18.90;;;11.60;;
72095;SDS011;59968;51.084;16.748;2023-04-24T00:53:41;18.00;;;10.80;;
72095;SDS011;59968;51.084;16.748;2023-04-24T00:56:09;17.90;;;11.00;;
72095;SDS011;59968;51.084;16.748;2023-04-24T00:58:39;19.60;;;11.90;;
72095;SDS011;59968;51.084;16.748;2023-04-24T01:01:08;19.90;;;12.30;;
72095;SDS011;59968;51.084;16.748;2023-04-24T01:03:37;18.70;;;11.40;;
72095;SDS011;59968;51.084;16.748;2023-04-24T01:06:07;19.00;;;12.10;;
72095;SDS011;59968;51.084;16.748;2023-04-24T01:08:42;20.20;;;11.50;;
72095;SDS011;59968;51.084;16.748;2023-04-24T01:11:13;19.40;;;11.60;;
72095;SDS011;59968;51.084;16.748;2023-04-24T01:13:42;16.20;;;10.70;;
72095;SDS011;59968;51.084;16.748;2023-04-24T01:16:11;17.10;;;11.10;;
72095;SDS011;59968;51.084;16.748;2023-04-24T01:18:39;19.00;;;11.30;;
72095;SDS011;59968;51.084;16.748;2023-04-24T01:21:09;17.60;;;11.50;;
72095;SDS011;59968;51.084;16.748;2023-04-24T01:23:44;18.70;;;12.00;;
72095;SDS011;59968;51.084;16.748;2023-04-24T01:26:16;18.40;;;10.80;;
72095;SDS011;59968;51.084;16.748;2023-04-24T01:28:48;18.30;;;11.70;;
72095;SDS011;59968;51.084;16.748;2023-04-24T01:31:17;17.20;;;10.80;;
72095;SDS011;59968;51.084;16.748;2023-04-24T01:33:46;16.40;;;11.70;;
72095;SDS011;59968;51.084;16.748;2023-04-24T01:36:16;18.40;;;11.20;;
72095;SDS011;59968;51.084;16.748;2023-04-24T01:38:45;19.70;;;11.20;;
72095;SDS011;59968;51.084;16.748;2023-04-24T01:41:13;18.10;;;10.50;;
72095;SDS011;59968;51.084;16.748;2023-04-24T01:43:42;17.30;;;10.30;;
72095;SDS011;59968;51.084;16.748;2023-04-24T01:46:11;16.70;;;10.20;;
72095;SDS011;59968;51.084;16.748;2023-04-24T01:48:40;17.80;;;11.30;;
72095;SDS011;59968;51.084;16.748;2023-04-24T01:51:09;18.00;;;11.10;;
72095;SDS011;59968;51.084;16.748;2023-04-24T01:53:37;17.80;;;10.50;;
72095;SDS011;59968;51.084;16.748;2023-04-24T01:56:06;19.00;;;11.00;;
72095;SDS011;59968;51.084;16.748;2023-04-24T01:58:35;14.50;;;9.70;;
72095;SDS011;59968;51.084;16.748;2023-04-24T02:01:05;18.00;;;10.70;;
72095;SDS011;59968;51.084;16.748;2023-04-24T02:03:35;16.90;;;10.80;;
72095;SDS011;59968;51.084;16.748;2023-04-24T02:06:04;18.80;;;11.60;;
72095;SDS011;59968;51.084;16.748;2023-04-24T02:08:33;19.20;;;11.10;;
72095;SDS011;59968;51.084;16.748;2023-04-24T02:11:01;17.50;;;11.10;;
72095;SDS011;59968;51.084;16.748;2023-04-24T02:13:31;18.90;;;11.40;;
72095;SDS011;59968;51.084;16.748;2023-04-24T02:16:01;17.50;;;11.00;;
72095;SDS011;59968;51.084;16.748;2023-04-24T02:18:30;20.80;;;11.30;;
72095;SDS011;59968;51.084;16.748;2023-04-24T02:21:03;18.50;;;11.30;;
72095;SDS011;59968;51.084;16.748;2023-04-24T02:23:32;17.70;;;11.30;;
72095;SDS011;59968;51.084;16.748;2023-04-24T02:26:01;17.50;;;10.90;;
72095;SDS011;59968;51.084;16.748;2023-04-24T02:28:30;18.90;;;11.10;;
72095;SDS011;59968;51.084;16.748;2023-04-24T02:30:59;18.90;;;11.60;;
72095;SDS011;59968;51.084;16.748;2023-04-24T02:33:30;16.60;;;10.70;;
72095;SDS011;59968;51.084;16.748;2023-04-24T02:36:02;17.50;;;10.30;;
72095;SDS011;59968;51.084;16.748;2023-04-24T02:38:31;19.10;;;11.20;;
72095;SDS011;59968;51.084;16.748;2023-04-24T02:40:59;18.40;;;10.40;;
72095;SDS011;59968;51.084;16.748;2023-04-24T02:43:31;18.30;;;11.00;;
72095;SDS011;59968;51.084;16.748;2023-04-24T02:46:03;17.30;;;10.80;;
72095;SDS011;59968;51.084;16.748;2023-04-24T02:48:32;17.70;;;10.50;;
72095;SDS011;59968;51.084;16.748;2023-04-24T02:51:01;17.70;;;10.90;;
72095;SDS011;59968;51.084;16.748;2023-04-24T02:53:30;19.20;;;11.00;;
72095;SDS011;59968;51.084;16.748;2023-04-24T02:55:59;17.10;;;10.90;;
72095;SDS011;59968;51.084;16.748;2023-04-24T02:58:28;16.80;;;11.00;;
72095;SDS011;59968;51.084;16.748;2023-04-24T03:00:56;15.40;;;10.20;;
72095;SDS011;59968;51.084;16.748;2023-04-24T03:03:25;15.90;;;9.90;;
72095;SDS011;59968;51.084;16.748;2023-04-24T03:05:54;15.90;;;10.90;;
72095;SDS011;59968;51.084;16.748;2023-04-24T03:08:25;17.50;;;10.70;;
72095;SDS011;59968;51.084;16.748;2023-04-24T03:10:53;17.10;;;11.20;;
72095;SDS011;59968;51.084;16.748;2023-04-24T03:13:22;16.30;;;10.30;;
72095;SDS011;59968;51.084;16.748;2023-04-24T03:15:50;16.30;;;10.20;;
72095;SDS011;59968;51.084;16.748;2023-04-24T03:18:21;18.90;;;9.90;;
72095;SDS011;59968;51.084;16.748;2023-04-24T03:20:50;17.10;;;10.50;;
72095;SDS011;59968;51.084;16.748;2023-04-24T03:23:18;16.50;;;10.30;;
72095;SDS011;59968;51.084;16.748;2023-04-24T03:25:51;15.70;;;9.80;;
72095;SDS011;59968;51.084;16.748;2023-04-24T03:28:20;16.70;;;9.90;;
72095;SDS011;59968;51.084;16.748;2023-04-24T03:31:02;14.10;;;8.50;;
72095;SDS011;59968;51.084;16.748;2023-04-24T03:33:33;26.00;;;12.50;;
72095;SDS011;59968;51.084;16.748;2023-04-24T03:36:02;14.20;;;9.00;;
72095;SDS011;59968;51.084;16.748;2023-04-24T03:38:39;15.60;;;10.70;;
72095;SDS011;59968;51.084;16.748;2023-04-24T03:41:29;16.10;;;10.60;;
72095;SDS011;59968;51.084;16.748;2023-04-24T03:44:21;14.80;;;9.90;;
72095;SDS011;59968;51.084;16.748;2023-04-24T03:46:51;16.10;;;10.70;;
72095;SDS011;59968;51.084;16.748;2023-04-24T03:49:20;15.70;;;9.90;;
72095;SDS011;59968;51.084;16.748;2023-04-24T03:51:52;13.40;;;9.60;;
72095;SDS011;59968;51.084;16.748;2023-04-24T03:54:26;13.70;;;8.80;;
72095;SDS011;59968;51.084;16.748;2023-04-24T03:56:55;13.90;;;9.00;;
72095;SDS011;59968;51.084;16.748;2023-04-24T03:59:27;13.80;;;8.90;;
72095;SDS011;59968;51.084;16.748;2023-04-24T04:02:12;13.80;;;8.60;;
72095;SDS011;59968;51.084;16.748;2023-04-24T04:04:42;13.80;;;8.90;;
72095;SDS011;59968;51.084;16.748;2023-04-24T04:07:11;14.90;;;9.10;;
72095;SDS011;59968;51.084;16.748;2023-04-24T04:09:41;13.00;;;8.70;;
72095;SDS011;59968;51.084;16.748;2023-04-24T04:12:15;12.90;;;8.50;;
72095;SDS011;59968;51.084;16.748;2023-04-24T04:14:44;13.70;;;8.80;;
72095;SDS011;59968;51.084;16.748;2023-04-24T04:17:19;13.40;;;8.60;;
72095;SDS011;59968;51.084;16.748;2023-04-24T04:19:47;12.20;;;8.50;;
72095;SDS011;59968;51.084;16.748;2023-04-24T04:22:16;9.50;;;7.00;;
72095;SDS011;59968;51.084;16.748;2023-04-24T04:24:48;11.70;;;7.70;;
72095;SDS011;59968;51.084;16.748;2023-04-24T04:27:20;10.50;;;7.20;;
72095;SDS011;59968;51.084;16.748;2023-04-24T04:30:04;11.70;;;7.60;;
72095;SDS011;59968;51.084;16.748;2023-04-24T04:32:40;11.30;;;7.10;;
72095;SDS011;59968;51.084;16.748;2023-04-24T04:35:09;10.80;;;6.70;;
72095;SDS011;59968;51.084;16.748;2023-04-24T04:37:38;12.00;;;6.90;;
72095;SDS011;59968;51.084;16.748;2023-04-24T04:40:16;10.50;;;7.10;;
72095;SDS011;59968;51.084;16.748;2023-04-24T04:42:56;10.20;;;6.20;;
72095;SDS011;59968;51.084;16.748;2023-04-24T04:45:26;10.70;;;6.80;;
72095;SDS011;59968;51.084;16.748;2023-04-24T04:48:14;9.50;;;6.70;;
72095;SDS011;59968;51.084;16.748;2023-04-24T04:50:45;9.80;;;6.20;;
72095;SDS011;59968;51.084;16.748;2023-04-24T04:53:14;9.80;;;6.30;;
72095;SDS011;59968;51.084;16.748;2023-04-24T04:55:43;10.00;;;6.30;;
72095;SDS011;59968;51.084;16.748;2023-04-24T04:58:15;10.60;;;6.20;;
72095;SDS011;59968;51.084;16.748;2023-04-24T05:00:45;10.60;;;6.60;;
72095;SDS011;59968;51.084;16.748;2023-04-24T05:03:22;10.60;;;6.60;;
72095;SDS011;59968;51.084;16.748;2023-04-24T05:05:57;8.80;;;5.80;;
72095;SDS011;59968;51.084;16.748;2023-04-24T05:08:27;9.90;;;6.50;;
72095;SDS011;59968;51.084;16.748;2023-04-24T05:10:56;9.70;;;6.70;;
72095;SDS011;59968;51.084;16.748;2023-04-24T05:13:27;11.50;;;6.70;;
72095;SDS011;59968;51.084;16.748;2023-04-24T05:16:15;10.90;;;5.80;;
72095;SDS011;59968;51.084;16.748;2023-04-24T05:18:44;8.40;;;6.00;;
72095;SDS011;59968;51.084;16.748;2023-04-24T05:21:14;9.50;;;5.80;;
72095;SDS011;59968;51.084;16.748;2023-04-24T05:23:45;11.00;;;6.30;;
72095;SDS011;59968;51.084;16.748;2023-04-24T05:26:16;8.90;;;6.40;;
72095;SDS011;59968;51.084;16.748;2023-04-24T05:28:45;9.90;;;7.10;;
72095;SDS011;59968;51.084;16.748;2023-04-24T05:31:15;11.30;;;6.90;;
72095;SDS011;59968;51.084;16.748;2023-04-24T05:33:46;9.60;;;6.40;;
72095;SDS011;59968;51.084;16.748;2023-04-24T05:36:18;10.00;;;6.80;;
72095;SDS011;59968;51.084;16.748;2023-04-24T05:38:47;10.40;;;6.70;;
72095;SDS011;59968;51.084;16.748;2023-04-24T05:41:15;11.10;;;6.30;;
72095;SDS011;59968;51.084;16.748;2023-04-24T05:43:44;9.20;;;6.10;;
72095;SDS011;59968;51.084;16.748;2023-04-24T05:46:13;9.80;;;6.80;;
72095;SDS011;59968;51.084;16.748;2023-04-24T05:48:45;9.20;;;6.50;;
72095;SDS011;59968;51.084;16.748;2023-04-24T05:51:13;10.20;;;6.00;;
72095;SDS011;59968;51.084;16.748;2023-04-24T05:53:43;8.20;;;6.10;;
72095;SDS011;59968;51.084;16.748;2023-04-24T05:56:12;9.40;;;6.40;;
72095;SDS011;59968;51.084;16.748;2023-04-24T05:58:41;9.90;;;5.80;;
72095;SDS011;59968;51.084;16.748;2023-04-24T06:01:10;8.00;;;6.10;;
72095;SDS011;59968;51.084;16.748;2023-04-24T06:03:42;8.10;;;5.50;;
72095;SDS011;59968;51.084;16.748;2023-04-24T06:06:12;9.90;;;6.10;;
72095;SDS011;59968;51.084;16.748;2023-04-24T06:08:41;7.40;;;5.80;;
72095;SDS011;59968;51.084;16.748;2023-04-24T06:11:13;8.50;;;6.20;;
72095;SDS011;59968;51.084;16.748;2023-04-24T06:13:41;6.20;;;4.50;;
72095;SDS011;59968;51.084;16.748;2023-04-24T06:16:40;7.60;;;4.80;;
72095;SDS011;59968;51.084;16.748;2023-04-24T06:19:19;6.40;;;4.60;;
72095;SDS011;59968;51.084;16.748;2023-04-24T06:21:47;7.00;;;4.80;;
72095;SDS011;59968;51.084;16.748;2023-04-24T06:24:16;8.10;;;4.60;;
72095;SDS011;59968;51.084;16.748;2023-04-24T06:26:45;7.30;;;4.70;;
72095;SDS011;59968;51.084;16.748;2023-04-24T06:29:15;7.50;;;4.50;;
72095;SDS011;59968;51.084;16.748;2023-04-24T06:31:46;7.20;;;4.40;;
72095;SDS011;59968;51.084;16.748;2023-04-24T06:34:24;7.50;;;4.30;;
72095;SDS011;59968;51.084;16.748;2023-04-24T06:36:53;7.10;;;4.50;;
72095;SDS011;59968;51.084;16.748;2023-04-24T06:39:23;6.10;;;4.60;;
72095;SDS011;59968;51.084;16.748;2023-04-24T06:41:51;6.40;;;4.20;;
72095;SDS011;59968;51.084;16.748;2023-04-24T06:44:20;7.10;;;4.10;;
72095;SDS011;59968;51.084;16.748;2023-04-24T06:46:52;5.90;;;4.60;;
72095;SDS011;59968;51.084;16.748;2023-04-24T06:49:26;5.30;;;3.80;;
72095;SDS011;59968;51.084;16.748;2023-04-24T06:51:54;5.20;;;3.70;;
72095;SDS011;59968;51.084;16.748;2023-04-24T06:54:24;5.90;;;3.90;;
72095;SDS011;59968;51.084;16.748;2023-04-24T06:56:52;6.00;;;4.20;;
72095;SDS011;59968;51.084;16.748;2023-04-24T06:59:21;5.70;;;3.80;;
72095;SDS011;59968;51.084;16.748;2023-04-24T07:01:50;6.00;;;4.20;;
72095;SDS011;59968;51.084;16.748;2023-04-24T07:04:22;5.10;;;3.20;;
72095;SDS011;59968;51.084;16.748;2023-04-24T07:06:51;5.40;;;3.20;;
72095;SDS011;59968;51.084;16.748;2023-04-24T07:09:19;5.00;;;3.30;;
72095;SDS011;59968;51.084;16.748;2023-04-24T07:11:48;5.50;;;3.30;;
72095;SDS011;59968;51.084;16.748;2023-04-24T07:14:18;5.50;;;4.10;;
72095;SDS011;59968;51.084;16.748;2023-04-24T07:16:48;6.70;;;4.30;;
72095;SDS011;59968;51.084;16.748;2023-04-24T07:19:17;5.40;;;3.90;;
72095;SDS011;59968;51.084;16.748;2023-04-24T07:21:45;6.60;;;3.70;;
72095;SDS011;59968;51.084;16.748;2023-04-24T07:24:14;5.80;;;4.10;;
72095;SDS011;59968;51.084;16.748;2023-04-24T07:26:43;6.10;;;4.00;;
72095;SDS011;59968;51.084;16.748;2023-04-24T07:29:12;5.40;;;3.70;;
72095;SDS011;59968;51.084;16.748;2023-04-24T07:31:41;6.90;;;4.00;;
72095;SDS011;59968;51.084;16.748;2023-04-24T07:34:10;6.10;;;3.80;;
72095;SDS011;59968;51.084;16.748;2023-04-24T07:36:42;7.10;;;4.00;;
72095;SDS011;59968;51.084;16.748;2023-04-24T07:39:11;6.60;;;3.90;;
72095;SDS011;59968;51.084;16.748;2023-04-24T07:41:39;6.60;;;4.30;;
72095;SDS011;59968;51.084;16.748;2023-04-24T07:44:08;6.90;;;4.30;;
72095;SDS011;59968;51.084;16.748;2023-04-24T07:46:37;5.80;;;4.20;;
72095;SDS011;59968;51.084;16.748;2023-04-24T07:49:06;6.10;;;4.10;;
72095;SDS011;59968;51.084;16.748;2023-04-24T07:51:41;6.00;;;3.80;;
72095;SDS011;59968;51.084;16.748;2023-04-24T07:54:10;6.30;;;4.10;;
72095;SDS011;59968;51.084;16.748;2023-04-24T07:56:38;6.00;;;3.80;;
72095;SDS011;59968;51.084;16.748;2023-04-24T07:59:11;6.40;;;4.10;;
72095;SDS011;59968;51.084;16.748;2023-04-24T08:01:40;5.10;;;3.80;;
72095;SDS011;59968;51.084;16.748;2023-04-24T08:04:09;6.70;;;4.10;;
72095;SDS011;59968;51.084;16.748;2023-04-24T08:06:38;7.10;;;4.40;;
72095;SDS011;59968;51.084;16.748;2023-04-24T08:09:07;5.70;;;3.80;;
72095;SDS011;59968;51.084;16.748;2023-04-24T08:11:36;5.90;;;4.20;;
72095;SDS011;59968;51.084;16.748;2023-04-24T08:14:04;7.70;;;3.60;;
72095;SDS011;59968;51.084;16.748;2023-04-24T08:16:33;5.10;;;3.80;;
72095;SDS011;59968;51.084;16.748;2023-04-24T08:19:03;5.90;;;3.90;;
72095;SDS011;59968;51.084;16.748;2023-04-24T08:21:32;5.50;;;3.80;;
72095;SDS011;59968;51.084;16.748;2023-04-24T08:24:00;5.70;;;3.70;;
72095;SDS011;59968;51.084;16.748;2023-04-24T08:26:33;6.30;;;3.80;;
72095;SDS011;59968;51.084;16.748;2023-04-24T08:29:01;5.50;;;4.20;;
72095;SDS011;59968;51.084;16.748;2023-04-24T08:31:30;5.50;;;3.50;;
72095;SDS011;59968;51.084;16.748;2023-04-24T08:33:59;5.20;;;3.90;;
72095;SDS011;59968;51.084;16.748;2023-04-24T08:36:28;4.10;;;3.00;;
72095;SDS011;59968;51.084;16.748;2023-04-24T08:39:13;5.70;;;4.00;;
72095;SDS011;59968;51.084;16.748;2023-04-24T08:41:43;6.10;;;3.90;;
72095;SDS011;59968;51.084;16.748;2023-04-24T08:44:13;5.20;;;3.50;;
72095;SDS011;59968;51.084;16.748;2023-04-24T08:46:44;5.30;;;4.00;;
72095;SDS011;59968;51.084;16.748;2023-04-24T08:49:15;5.90;;;4.00;;
72095;SDS011;59968;51.084;16.748;2023-04-24T08:51:47;5.90;;;4.10;;
72095;SDS011;59968;51.084;16.748;2023-04-24T08:54:18;8.30;;;4.20;;
72095;SDS011;59968;51.084;16.748;2023-04-24T08:56:47;5.90;;;4.40;;
72095;SDS011;59968;51.084;16.748;2023-04-24T08:59:16;7.30;;;4.00;;
72095;SDS011;59968;51.084;16.748;2023-04-24T09:01:46;7.60;;;3.70;;
72095;SDS011;59968;51.084;16.748;2023-04-24T09:04:16;5.50;;;4.20;;
72095;SDS011;59968;51.084;16.748;2023-04-24T09:06:48;7.70;;;4.70;;
72095;SDS011;59968;51.084;16.748;2023-04-24T09:09:18;5.50;;;3.90;;
72095;SDS011;59968;51.084;16.748;2023-04-24T09:11:46;5.50;;;3.70;;
72095;SDS011;59968;51.084;16.748;2023-04-24T09:14:17;5.90;;;4.10;;
72095;SDS011;59968;51.084;16.748;2023-04-24T09:16:47;6.00;;;3.90;;
72095;SDS011;59968;51.084;16.748;2023-04-24T09:19:16;9.90;;;4.30;;
72095;SDS011;59968;51.084;16.748;2023-04-24T09:21:45;6.90;;;4.40;;
72095;SDS011;59968;51.084;16.748;2023-04-24T09:24:18;4.90;;;3.60;;
72095;SDS011;59968;51.084;16.748;2023-04-24T09:26:57;4.60;;;3.60;;
72095;SDS011;59968;51.084;16.748;2023-04-24T09:29:27;6.50;;;3.90;;
72095;SDS011;59968;51.084;16.748;2023-04-24T09:31:57;7.80;;;4.70;;
72095;SDS011;59968;51.084;16.748;2023-04-24T09:34:28;6.90;;;3.70;;
72095;SDS011;59968;51.084;16.748;2023-04-24T09:36:57;6.20;;;4.10;;
72095;SDS011;59968;51.084;16.748;2023-04-24T09:39:25;5.90;;;4.20;;
72095;SDS011;59968;51.084;16.748;2023-04-24T09:41:54;6.00;;;4.30;;
72095;SDS011;59968;51.084;16.748;2023-04-24T09:44:39;7.60;;;4.60;;
72095;SDS011;59968;51.084;16.748;2023-04-24T09:47:09;6.10;;;3.90;;
72095;SDS011;59968;51.084;16.748;2023-04-24T09:49:38;6.00;;;4.10;;
72095;SDS011;59968;51.084;16.748;2023-04-24T09:52:10;6.60;;;4.00;;
72095;SDS011;59968;51.084;16.748;2023-04-24T09:54:39;6.60;;;4.10;;
72095;SDS011;59968;51.084;16.748;2023-04-24T09:57:08;4.80;;;3.40;;
72095;SDS011;59968;51.084;16.748;2023-04-24T09:59:45;5.50;;;3.70;;
72095;SDS011;59968;51.084;16.748;2023-04-24T10:02:18;10.50;;;6.70;;
72095;SDS011;59968;51.084;16.748;2023-04-24T10:04:56;11.40;;;7.40;;
72095;SDS011;59968;51.084;16.748;2023-04-24T10:07:28;11.50;;;6.90;;
72095;SDS011;59968;51.084;16.748;2023-04-24T10:09:56;10.10;;;6.80;;
72095;SDS011;59968;51.084;16.748;2023-04-24T10:12:26;10.20;;;6.70;;
72095;SDS011;59968;51.084;16.748;2023-04-24T10:14:57;9.90;;;6.90;;
72095;SDS011;59968;51.084;16.748;2023-04-24T10:17:27;11.80;;;7.70;;
72095;SDS011;59968;51.084;16.748;2023-04-24T10:19:57;12.50;;;9.30;;
72095;SDS011;59968;51.084;16.748;2023-04-24T10:22:28;12.40;;;8.90;;
72095;SDS011;59968;51.084;16.748;2023-04-24T10:24:58;8.60;;;6.10;;
72095;SDS011;59968;51.084;16.748;2023-04-24T10:27:27;5.30;;;3.80;;
72095;SDS011;59968;51.084;16.748;2023-04-24T10:29:58;5.00;;;3.70;;
72095;SDS011;59968;51.084;16.748;2023-04-24T10:32:29;5.90;;;3.60;;
72095;SDS011;59968;51.084;16.748;2023-04-24T10:34:58;5.70;;;4.00;;
72095;SDS011;59968;51.084;16.748;2023-04-24T10:37:27;6.10;;;4.10;;
72095;SDS011;59968;51.084;16.748;2023-04-24T10:39:57;7.40;;;4.00;;
72095;SDS011;59968;51.084;16.748;2023-04-24T10:42:27;5.60;;;3.80;;
72095;SDS011;59968;51.084;16.748;2023-04-24T10:44:56;5.40;;;3.60;;
72095;SDS011;59968;51.084;16.748;2023-04-24T10:47:26;6.20;;;3.90;;
72095;SDS011;59968;51.084;16.748;2023-04-24T10:49:55;5.50;;;3.70;;
72095;SDS011;59968;51.084;16.748;2023-04-24T10:52:43;5.70;;;3.80;;
72095;SDS011;59968;51.084;16.748;2023-04-24T10:55:13;5.20;;;3.80;;
72095;SDS011;59968;51.084;16.748;2023-04-24T10:58:00;5.30;;;3.70;;
72095;SDS011;59968;51.084;16.748;2023-04-24T11:00:32;5.40;;;3.70;;
72095;SDS011;59968;51.084;16.748;2023-04-24T11:03:01;6.80;;;4.00;;
72095;SDS011;59968;51.084;16.748;2023-04-24T11:05:50;6.40;;;3.70;;
72095;SDS011;59968;51.084;16.748;2023-04-24T11:08:22;5.20;;;3.90;;
72095;SDS011;59968;51.084;16.748;2023-04-24T11:22:01;7.50;;;4.60;;
72095;SDS011;59968;51.084;16.748;2023-04-24T11:32:28;5.80;;;4.50;;
72095;SDS011;59968;51.084;16.748;2023-04-24T11:37:44;6.40;;;4.50;;
72095;SDS011;59968;51.084;16.748;2023-04-24T11:40:35;6.90;;;4.40;;
72095;SDS011;59968;51.084;16.748;2023-04-24T11:43:06;7.80;;;4.50;;
72095;SDS011;59968;51.084;16.748;2023-04-24T11:45:37;7.20;;;4.60;;
72095;SDS011;59968;51.084;16.748;2023-04-24T11:48:06;6.80;;;4.60;;
72095;SDS011;59968;51.084;16.748;2023-04-24T11:50:35;5.80;;;3.80;;
72095;SDS011;59968;51.084;16.748;2023-04-24T11:53:04;5.70;;;3.90;;
72095;SDS011;59968;51.084;16.748;2023-04-24T11:55:33;6.80;;;4.40;;
72095;SDS011;59968;51.084;16.748;2023-04-24T11:58:02;6.30;;;4.30;;
72095;SDS011;59968;51.084;16.748;2023-04-24T12:00:31;7.00;;;4.50;;
72095;SDS011;59968;51.084;16.748;2023-04-24T12:03:05;5.60;;;3.90;;
72095;SDS011;59968;51.084;16.748;2023-04-24T12:05:36;7.60;;;5.00;;
72095;SDS011;59968;51.084;16.748;2023-04-24T12:08:09;6.40;;;3.70;;
72095;SDS011;59968;51.084;16.748;2023-04-24T12:10:54;5.70;;;4.00;;
72095;SDS011;59968;51.084;16.748;2023-04-24T12:13:24;5.30;;;3.20;;
72095;SDS011;59968;51.084;16.748;2023-04-24T12:15:53;2.60;;;1.30;;
72095;SDS011;59968;51.084;16.748;2023-04-24T12:18:25;2.00;;;1.30;;
72095;SDS011;59968;51.084;16.748;2023-04-24T12:20:54;1.20;;;1.10;;
72095;SDS011;59968;51.084;16.748;2023-04-24T12:23:43;2.70;;;1.40;;
72095;SDS011;59968;51.084;16.748;2023-04-24T12:26:18;2.80;;;1.00;;
72095;SDS011;59968;51.084;16.748;2023-04-24T12:28:56;1.70;;;1.10;;
72095;SDS011;59968;51.084;16.748;2023-04-24T12:31:31;1.10;;;0.90;;
72095;SDS011;59968;51.084;16.748;2023-04-24T12:34:00;1.10;;;0.70;;
72095;SDS011;59968;51.084;16.748;2023-04-24T12:36:29;1.50;;;0.80;;
72095;SDS011;59968;51.084;16.748;2023-04-24T12:39:00;1.30;;;0.90;;
72095;SDS011;59968;51.084;16.748;2023-04-24T12:41:32;3.20;;;1.30;;
72095;SDS011;59968;51.084;16.748;2023-04-24T12:44:00;1.10;;;0.80;;
72095;SDS011;59968;51.084;16.748;2023-04-24T12:46:29;3.20;;;1.50;;
72095;SDS011;59968;51.084;16.748;2023-04-24T12:48:59;1.30;;;0.90;;
72095;SDS011;59968;51.084;16.748;2023-04-24T12:51:27;1.10;;;0.70;;
72095;SDS011;59968;51.084;16.748;2023-04-24T12:54:01;1.40;;;1.10;;
72095;SDS011;59968;51.084;16.748;2023-04-24T12:56:30;1.70;;;1.00;;
72095;SDS011;59968;51.084;16.748;2023-04-24T12:58:59;1.60;;;1.00;;
72095;SDS011;59968;51.084;16.748;2023-04-24T13:01:31;2.10;;;1.40;;
72095;SDS011;59968;51.084;16.748;2023-04-24T13:03:59;3.60;;;1.60;;
72095;SDS011;59968;51.084;16.748;2023-04-24T13:06:29;2.10;;;1.10;;
72095;SDS011;59968;51.084;16.748;2023-04-24T13:08:57;3.20;;;1.40;;
72095;SDS011;59968;51.084;16.748;2023-04-24T13:11:26;2.80;;;1.50;;
72095;SDS011;59968;51.084;16.748;2023-04-24T13:13:55;3.30;;;1.40;;
72095;SDS011;59968;51.084;16.748;2023-04-24T13:16:24;1.80;;;1.00;;
72095;SDS011;59968;51.084;16.748;2023-04-24T13:18:53;2.10;;;1.30;;
72095;SDS011;59968;51.084;16.748;2023-04-24T13:21:23;2.50;;;1.10;;
72095;SDS011;59968;51.084;16.748;2023-04-24T13:23:52;2.90;;;1.30;;
72095;SDS011;59968;51.084;16.748;2023-04-24T13:26:21;2.30;;;1.30;;
72095;SDS011;59968;51.084;16.748;2023-04-24T13:28:50;1.80;;;1.00;;
72095;SDS011;59968;51.084;16.748;2023-04-24T13:31:20;2.50;;;1.10;;
72095;SDS011;59968;51.084;16.748;2023-04-24T13:33:50;2.90;;;1.20;;
72095;SDS011;59968;51.084;16.748;2023-04-24T13:36:22;2.40;;;1.60;;
72095;SDS011;59968;51.084;16.748;2023-04-24T13:38:51;3.30;;;1.90;;
72095;SDS011;59968;51.084;16.748;2023-04-24T13:41:20;2.10;;;1.30;;
72095;SDS011;59968;51.084;16.748;2023-04-24T13:43:54;4.00;;;1.60;;
72095;SDS011;59968;51.084;16.748;2023-04-24T13:46:23;2.70;;;1.40;;
72095;SDS011;59968;51.084;16.748;2023-04-24T13:48:52;2.20;;;1.50;;
72095;SDS011;59968;51.084;16.748;2023-04-24T13:51:27;3.40;;;1.60;;
72095;SDS011;59968;51.084;16.748;2023-04-24T13:53:56;2.70;;;1.50;;
72095;SDS011;59968;51.084;16.748;2023-04-24T13:56:27;4.00;;;2.00;;
72095;SDS011;59968;51.084;16.748;2023-04-24T13:58:56;3.50;;;2.40;;
72095;SDS011;59968;51.084;16.748;2023-04-24T14:01:25;4.50;;;2.80;;
72095;SDS011;59968;51.084;16.748;2023-04-24T14:03:54;5.40;;;2.80;;
72095;SDS011;59968;51.084;16.748;2023-04-24T14:06:24;4.80;;;2.70;;
72095;SDS011;59968;51.084;16.748;2023-04-24T14:09:11;4.80;;;2.50;;
72095;SDS011;59968;51.084;16.748;2023-04-24T14:11:41;4.10;;;2.60;;
72095;SDS011;59968;51.084;16.748;2023-04-24T14:14:10;6.10;;;2.90;;
72095;SDS011;59968;51.084;16.748;2023-04-24T14:16:39;6.40;;;3.50;;
72095;SDS011;59968;51.084;16.748;2023-04-24T14:19:12;6.80;;;3.60;;
72095;SDS011;59968;51.084;16.748;2023-04-24T14:21:41;7.60;;;3.70;;
72095;SDS011;59968;51.084;16.748;2023-04-24T14:24:09;6.80;;;3.50;;
72095;SDS011;59968;51.084;16.748;2023-04-24T14:26:48;10.60;;;5.20;;
72095;SDS011;59968;51.084;16.748;2023-04-24T14:29:17;8.60;;;4.00;;
72095;SDS011;59968;51.084;16.748;2023-04-24T14:31:46;7.30;;;3.80;;
72095;SDS011;59968;51.084;16.748;2023-04-24T14:34:18;7.20;;;3.50;;
72095;SDS011;59968;51.084;16.748;2023-04-24T14:36:47;6.80;;;3.70;;
72095;SDS011;59968;51.084;16.748;2023-04-24T14:39:17;9.20;;;4.70;;
72095;SDS011;59968;51.084;16.748;2023-04-24T14:41:45;8.20;;;4.60;;
72095;SDS011;59968;51.084;16.748;2023-04-24T14:44:17;6.00;;;3.50;;
72095;SDS011;59968;51.084;16.748;2023-04-24T14:46:47;3.90;;;2.00;;
72095;SDS011;59968;51.084;16.748;2023-04-24T14:49:17;4.50;;;1.80;;
72095;SDS011;59968;51.084;16.748;2023-04-24T14:51:49;6.10;;;2.10;;
72095;SDS011;59968;51.084;16.748;2023-04-24T14:54:18;7.40;;;2.70;;
72095;SDS011;59968;51.084;16.748;2023-04-24T14:56:47;7.20;;;4.10;;
72095;SDS011;59968;51.084;16.748;2023-04-24T14:59:16;7.70;;;3.10;;
72095;SDS011;59968;51.084;16.748;2023-04-24T15:01:45;5.90;;;2.80;;
72095;SDS011;59968;51.084;16.748;2023-04-24T15:04:14;3.90;;;1.60;;
72095;SDS011;59968;51.084;16.748;2023-04-24T15:06:43;4.30;;;1.60;;
72095;SDS011;59968;51.084;16.748;2023-04-24T15:09:12;2.40;;;1.50;;